Time;durP1;ratioP1;P1;durP2;ratioP2;P2;SDS_P1;SDS_P2;PMS_P1;PMS_P2;Temp;Humidity;BMP_temperature;BMP_pressure;BME280_temperature;BME280_humidity;BME280_pressure;Samples;Min_cycle;Max_cycle;Signal;HPM_P1;HPM_P2
2022/11/28 00:00:16;;;;;;;13.02;7.53;;;7.20;99.90;;;;;;4996180;28;20219;-72
2022/11/28 00:02:42;;;;;;;11.75;7.28;;;7.00;99.90;;;;;;4979700;28;20077;-73
2022/11/28 00:05:11;;;;;;;13.25;7.55;;;7.00;99.90;;;;;;4979586;28;20046;-77
2022/11/28 00:07:37;;;;;;;12.57;7.45;;;7.00;99.90;;;;;;4995689;28;20060;-78
2022/11/28 00:10:04;;;;;;;12.05;6.78;;;7.00;99.90;;;;;;5012318;28;20050;-71
2022/11/28 00:12:30;;;;;;;16.00;7.05;;;7.00;99.90;;;;;;4995890;28;20041;-72
2022/11/28 00:14:56;;;;;;;11.73;6.60;;;7.00;99.90;;;;;;4979683;28;20140;-73
2022/11/28 00:17:21;;;;;;;14.95;7.88;;;7.00;99.90;;;;;;4995898;28;20042;-75
2022/11/28 00:19:47;;;;;;;12.95;7.07;;;7.30;99.90;;;;;;4963292;28;20042;-74
2022/11/28 00:22:13;;;;;;;13.13;6.75;;;7.00;99.90;;;;;;4995899;28;20113;-73
2022/11/28 00:24:39;;;;;;;10.90;6.20;;;7.10;99.90;;;;;;5011600;28;20104;-78
2022/11/28 00:27:05;;;;;;;10.98;6.10;;;7.10;99.90;;;;;;4979656;28;20057;-71
2022/11/28 00:29:30;;;;;;;10.82;6.15;;;7.10;99.90;;;;;;4995689;28;20049;-75
2022/11/28 00:31:56;;;;;;;9.40;5.90;;;7.10;99.90;;;;;;4995664;28;20042;-73
2022/11/28 00:34:22;;;;;;;10.73;6.43;;;7.10;99.90;;;;;;5012933;28;20062;-78
2022/11/28 00:36:47;;;;;;;11.93;6.20;;;7.10;99.90;;;;;;5015838;28;20053;-74
2022/11/28 00:39:14;;;;;;;10.77;5.95;;;7.10;99.90;;;;;;5016040;28;20042;-75
2022/11/28 00:41:40;;;;;;;10.63;5.88;;;7.30;99.90;;;;;;5015785;28;20081;-73
2022/11/28 00:44:06;;;;;;;11.70;6.85;;;7.10;99.90;;;;;;5015828;28;20045;-75
2022/11/28 00:46:32;;;;;;;12.32;7.00;;;7.10;99.90;;;;;;5015892;28;20449;-72
2022/11/28 00:48:58;;;;;;;11.98;6.47;;;7.10;99.90;;;;;;5015683;28;20086;-75
2022/11/28 00:51:26;;;;;;;12.20;6.50;;;7.10;99.90;;;;;;4999130;28;20110;-73
2022/11/28 00:53:54;;;;;;;11.15;6.75;;;7.10;99.90;;;;;;5015583;28;20561;-79
2022/11/28 00:56:23;;;;;;;10.82;6.40;;;7.20;99.90;;;;;;4999275;28;20046;-72
2022/11/28 00:58:49;;;;;;;12.02;6.95;;;7.10;99.90;;;;;;5015174;28;20056;-75
2022/11/28 01:01:17;;;;;;;12.40;6.97;;;7.10;99.90;;;;;;4983186;28;20041;-72
2022/11/28 01:03:44;;;;;;;12.52;6.80;;;7.10;99.90;;;;;;4999010;28;20203;-74
2022/11/28 01:06:11;;;;;;;11.90;7.00;;;7.10;99.90;;;;;;4998922;28;20065;-72
2022/11/28 01:08:37;;;;;;;11.38;6.28;;;7.10;99.90;;;;;;4998708;28;20042;-74
2022/11/28 01:11:08;;;;;;;12.45;6.95;;;7.10;99.90;;;;;;5015052;28;20068;-73
2022/11/28 01:13:34;;;;;;;13.40;6.95;;;7.10;99.90;;;;;;5015428;28;20498;-71
2022/11/28 01:16:00;;;;;;;12.38;7.28;;;7.40;99.90;;;;;;5015157;28;20133;-72
2022/11/28 01:18:26;;;;;;;12.05;7.25;;;7.10;99.90;;;;;;5015379;28;20398;-74
2022/11/28 01:20:51;;;;;;;14.23;7.65;;;7.10;99.90;;;;;;5015000;28;20046;-75
2022/11/28 01:23:18;;;;;;;12.20;7.38;;;7.20;99.90;;;;;;4998980;28;20119;-72
2022/11/28 01:25:44;;;;;;;13.85;7.38;;;7.10;99.90;;;;;;4982702;28;20182;-75
2022/11/28 01:28:09;;;;;;;11.95;7.28;;;7.20;99.90;;;;;;4998322;28;20494;-72
2022/11/28 01:30:35;;;;;;;14.82;7.13;;;7.20;99.90;;;;;;5015038;28;20399;-73
2022/11/28 01:33:00;;;;;;;14.60;7.82;;;7.10;99.90;;;;;;4998465;28;20056;-79
2022/11/28 01:35:26;;;;;;;12.98;6.97;;;7.20;99.90;;;;;;5014350;28;20054;-77
2022/11/28 01:37:52;;;;;;;13.02;7.93;;;7.50;99.90;;;;;;5014952;28;20483;-77
2022/11/28 01:40:18;;;;;;;12.70;7.22;;;7.20;99.90;;;;;;4998234;28;20394;-80
2022/11/28 01:42:43;;;;;;;16.50;7.75;;;7.20;99.90;;;;;;5014932;28;20052;-72
2022/11/28 01:45:18;;;;;;;14.23;7.53;;;7.20;99.90;;;;;;4997139;28;20037;-79
2022/11/28 01:47:45;;;;;;;12.38;7.65;;;7.10;99.90;;;;;;5014686;28;20045;-76
2022/11/28 01:50:12;;;;;;;13.95;7.20;;;7.10;99.90;;;;;;5014508;28;20057;-77
2022/11/28 01:52:41;;;;;;;14.38;7.70;;;7.10;99.90;;;;;;5014311;28;20057;-76
2022/11/28 01:55:09;;;;;;;12.05;7.05;;;7.10;99.90;;;;;;4998072;28;20049;-73
2022/11/28 01:57:35;;;;;;;14.32;7.82;;;7.20;99.90;;;;;;4982134;28;20053;-71
2022/11/28 02:00:07;;;;;;;13.45;8.13;;;7.10;99.90;;;;;;4998087;28;20042;-77
2022/11/28 02:02:51;;;;;;;13.75;7.43;;;7.10;99.90;;;;;;5014567;28;20414;-73
2022/11/28 02:05:19;;;;;;;15.18;7.65;;;7.10;99.90;;;;;;4997954;28;20046;-74
2022/11/28 02:07:46;;;;;;;14.02;7.88;;;7.10;99.90;;;;;;4981820;28;20128;-74
2022/11/28 02:10:16;;;;;;;13.45;8.38;;;7.10;99.90;;;;;;4997795;28;20129;-74
2022/11/28 02:12:54;;;;;;;15.77;8.63;;;7.30;99.90;;;;;;5014395;28;20087;-76
2022/11/28 02:15:42;;;;;;;17.63;8.50;;;7.10;99.90;;;;;;4997983;28;20320;-75
2022/11/28 02:18:18;;;;;;;15.95;8.13;;;7.10;99.90;;;;;;5014023;28;20058;-75
2022/11/28 02:21:15;;;;;;;17.27;9.00;;;7.10;99.90;;;;;;5014272;28;20072;-79
2022/11/28 02:23:56;;;;;;;15.93;9.50;;;7.10;99.90;;;;;;4997639;28;20061;-77
2022/11/28 02:26:47;;;;;;;14.73;8.70;;;7.20;99.90;;;;;;5014011;28;20117;-75
2022/11/28 02:29:47;;;;;;;16.60;8.93;;;7.10;99.90;;;;;;4997225;28;20050;-71
2022/11/28 02:32:22;;;;;;;17.45;9.13;;;7.10;99.90;;;;;;5013738;28;20065;-71
2022/11/28 02:35:13;;;;;;;17.63;9.70;;;7.10;99.90;;;;;;4997315;28;20095;-74
2022/11/28 02:38:05;;;;;;;20.63;10.00;;;7.10;99.90;;;;;;5014034;28;20054;-73
2022/11/28 02:40:48;;;;;;;15.90;9.45;;;7.10;99.90;;;;;;4997599;28;20057;-73
2022/11/28 02:43:32;;;;;;;18.02;9.70;;;7.10;99.90;;;;;;5013654;28;20123;-76
2022/11/28 02:46:09;;;;;;;19.67;9.55;;;7.10;99.90;;;;;;4996921;28;20457;-77
2022/11/28 02:49:07;;;;;;;16.17;9.73;;;7.20;99.90;;;;;;4997404;28;20053;-71
2022/11/28 02:51:42;;;;;;;18.10;9.68;;;7.20;99.90;;;;;;5007535;28;20061;-74
2022/11/28 02:54:10;;;;;;;19.95;10.55;;;7.20;99.90;;;;;;4997045;28;20057;-78
2022/11/28 02:56:37;;;;;;;19.75;9.65;;;7.20;99.90;;;;;;5013058;28;20077;-74
2022/11/28 02:59:03;;;;;;;15.77;9.73;;;7.30;99.90;;;;;;4980831;28;20073;-77
2022/11/28 03:01:37;;;;;;;18.67;10.02;;;7.30;99.90;;;;;;4996984;28;20466;-73
2022/11/28 03:04:12;;;;;;;18.25;9.68;;;7.20;99.90;;;;;;5013152;28;20042;-74
2022/11/28 03:06:45;;;;;;;15.68;8.70;;;7.20;99.90;;;;;;5013312;28;20270;-77
2022/11/28 03:09:38;;;;;;;16.10;9.55;;;7.30;99.90;;;;;;5013099;28;20050;-74
2022/11/28 03:12:28;;;;;;;17.75;10.30;;;7.30;99.90;;;;;;5013059;28;20544;-79
2022/11/28 03:14:56;;;;;;;18.15;9.15;;;7.70;99.90;;;;;;4996889;28;20085;-75
2022/11/28 03:17:40;;;;;;;20.20;10.57;;;7.50;99.90;;;;;;4996565;28;20523;-77
2022/11/28 03:20:13;;;;;;;18.38;9.63;;;7.20;99.90;;;;;;5012933;28;20434;-78
2022/11/28 03:23:23;;;;;;;19.13;10.23;;;7.30;99.90;;;;;;5013045;28;20048;-78
2022/11/28 03:25:55;;;;;;;16.50;9.60;;;7.30;99.90;;;;;;4940141;28;20258;-72
2022/11/28 03:28:34;;;;;;;;;;;7.30;99.90;;;;;;4989549;28;20062;-74
2022/11/28 03:31:06;;;;;;;16.20;9.45;;;7.30;99.90;;;;;;4996179;28;20044;-71
2022/11/28 03:33:41;;;;;;;17.83;9.55;;;7.30;99.90;;;;;;5012606;28;20061;-72
2022/11/28 03:36:31;;;;;;;19.83;10.02;;;7.60;99.90;;;;;;5012692;28;20363;-73
2022/11/28 03:39:09;;;;;;;20.25;10.40;;;7.40;99.90;;;;;;4996458;28;20061;-73
2022/11/28 03:41:43;;;;;;;18.25;9.45;;;7.50;99.90;;;;;;5012693;28;20141;-73
2022/11/28 03:44:18;;;;;;;15.80;10.23;;;7.60;99.90;;;;;;5012881;28;20072;-79
2022/11/28 03:46:47;;;;;;;18.08;10.02;;;7.50;99.90;;;;;;4996280;28;20056;-72
2022/11/28 03:49:21;;;;;;;17.20;10.75;;;7.50;99.90;;;;;;5012275;28;20111;-76
2022/11/28 03:51:59;;;;;;;18.40;10.13;;;7.50;99.90;;;;;;5012522;28;20049;-78
2022/11/28 03:54:38;;;;;;;18.58;10.65;;;7.60;99.90;;;;;;4996023;28;20045;-73
2022/11/28 03:57:19;;;;;;;21.80;11.32;;;7.60;99.90;;;;;;5012424;28;20453;-71
2022/11/28 03:59:53;;;;;;;22.70;10.77;;;7.60;99.90;;;;;;4996102;28;20046;-72
2022/11/28 04:02:38;;;;;;;18.98;9.75;;;7.60;99.90;;;;;;4995766;28;20053;-75
2022/11/28 04:05:17;;;;;;;18.63;10.77;;;7.60;99.90;;;;;;5011836;28;20107;-78
2022/11/28 04:08:02;;;;;;;18.52;9.30;;;7.70;99.90;;;;;;4995912;28;20046;-71
2022/11/28 04:10:37;;;;;;;17.10;9.82;;;7.70;99.90;;;;;;5011783;28;20081;-73
2022/11/28 04:13:24;;;;;;;19.23;9.55;;;7.70;99.90;;;;;;4995851;28;20495;-72
2022/11/28 04:15:59;;;;;;;16.35;9.95;;;7.70;99.90;;;;;;4995912;28;20057;-71
2022/11/28 04:18:54;;;;;;;15.93;9.93;;;7.70;99.90;;;;;;4995808;28;20100;-74
2022/11/28 04:21:25;;;;;;;16.23;9.35;;;7.70;99.90;;;;;;4995552;28;20088;-75
2022/11/28 04:23:55;;;;;;;18.95;10.00;;;7.70;99.90;;;;;;5011781;28;20486;-73
2022/11/28 04:26:34;;;;;;;16.58;9.40;;;7.70;99.90;;;;;;4995603;28;20476;-76
2022/11/28 04:29:04;;;;;;;17.67;10.05;;;7.80;99.90;;;;;;5012094;28;20042;-72
2022/11/28 04:31:31;;;;;;;18.33;10.55;;;7.80;99.90;;;;;;4995583;28;20434;-71
2022/11/28 04:34:01;;;;;;;17.35;9.23;;;7.80;99.90;;;;;;5011718;28;20149;-74
2022/11/28 04:36:29;;;;;;;15.63;9.98;;;7.80;99.90;;;;;;4995436;28;20057;-74
2022/11/28 04:38:57;;;;;;;19.10;10.65;;;7.80;99.90;;;;;;5011966;28;20082;-77
2022/11/28 04:41:32;;;;;;;19.58;11.02;;;7.80;99.90;;;;;;4995335;28;20053;-75
2022/11/28 04:44:28;;;;;;;18.65;10.52;;;7.80;99.90;;;;;;5011742;28;20145;-79
2022/11/28 04:46:55;;;;;;;21.40;11.70;;;7.80;99.90;;;;;;5011840;28;20487;-72
2022/11/28 04:49:24;;;;;;;22.60;11.73;;;7.80;99.90;;;;;;4995435;28;20058;-72
2022/11/28 04:52:04;;;;;;;24.35;12.30;;;7.80;99.90;;;;;;5011808;28;20050;-72
2022/11/28 04:54:33;;;;;;;23.67;12.18;;;7.80;99.90;;;;;;4995339;28;20088;-71
2022/11/28 04:57:01;;;;;;;22.15;12.43;;;7.80;99.90;;;;;;5011575;28;20372;-74
2022/11/28 04:59:30;;;;;;;24.45;13.07;;;7.80;99.90;;;;;;5011603;28;20050;-74
2022/11/28 05:01:57;;;;;;;24.38;13.38;;;7.90;99.90;;;;;;4995368;28;20081;-73
2022/11/28 05:04:23;;;;;;;29.55;14.35;;;7.80;99.90;;;;;;4993181;28;20069;-77
2022/11/28 05:06:49;;;;;;;27.50;14.77;;;7.90;99.90;;;;;;5009525;28;20054;-75
2022/11/28 05:09:15;;;;;;;29.33;14.98;;;7.80;99.90;;;;;;5009466;28;20119;-76
2022/11/28 05:11:41;;;;;;;29.17;15.00;;;7.80;99.90;;;;;;4992855;28;20049;-75
2022/11/28 05:14:07;;;;;;;30.45;15.30;;;7.80;99.90;;;;;;4993032;28;20072;-75
2022/11/28 05:16:33;;;;;;;30.15;16.02;;;7.90;99.90;;;;;;4992239;28;20141;-73
2022/11/28 05:18:59;;;;;;;32.90;16.52;;;7.90;99.90;;;;;;4976893;28;20049;-75
2022/11/28 05:21:25;;;;;;;32.72;17.17;;;7.90;99.90;;;;;;5012207;28;20312;-75
2022/11/28 05:23:50;;;;;;;31.73;16.98;;;7.90;99.90;;;;;;4648295;28;10000104;-74
2022/11/28 05:26:19;;;;;;;35.38;17.52;;;7.90;99.90;;;;;;4999870;28;20513;-76
2022/11/28 05:28:47;;;;;;;34.65;16.73;;;7.90;99.90;;;;;;5015549;28;20056;-76
2022/11/28 05:31:13;;;;;;;34.75;16.67;;;8.00;99.90;;;;;;5032461;28;20512;-74
2022/11/28 05:33:39;;;;;;;34.72;17.90;;;8.00;99.90;;;;;;5032145;28;20140;-74
2022/11/28 05:36:07;;;;;;;33.42;17.52;;;8.10;99.90;;;;;;5015837;28;20620;-78
2022/11/28 05:38:33;;;;;;;34.47;18.30;;;8.00;99.90;;;;;;5015465;28;20406;-75
2022/11/28 05:41:00;;;;;;;38.97;19.45;;;8.00;99.90;;;;;;5031665;28;20519;-75
2022/11/28 05:43:26;;;;;;;36.85;18.33;;;8.20;99.90;;;;;;5032099;28;20055;-74
2022/11/28 05:45:52;;;;;;;37.30;18.40;;;8.00;99.90;;;;;;5015631;28;20049;-75
2022/11/28 05:48:18;;;;;;;39.90;20.08;;;8.00;99.90;;;;;;4999586;28;20139;-77
2022/11/28 05:50:43;;;;;;;43.80;19.08;;;8.00;99.90;;;;;;4999357;28;20505;-76
2022/11/28 05:53:10;;;;;;;42.30;20.25;;;8.00;99.90;;;;;;5015296;28;20111;-76
2022/11/28 05:55:39;;;;;;;40.85;19.58;;;8.10;99.90;;;;;;5015322;28;20053;-75
2022/11/28 05:58:05;;;;;;;38.00;19.05;;;8.00;99.90;;;;;;5016493;28;20057;-75
2022/11/28 06:00:30;;;;;;;42.92;20.40;;;8.10;99.90;;;;;;5017607;28;20053;-72
2022/11/28 06:02:57;;;;;;;41.38;19.58;;;8.10;99.90;;;;;;5034343;28;20489;-74
2022/11/28 06:05:23;;;;;;;43.15;20.27;;;8.10;99.90;;;;;;5033852;28;20042;-74
2022/11/28 06:07:49;;;;;;;46.00;21.90;;;8.10;99.90;;;;;;5017522;28;20049;-76
2022/11/28 06:10:14;;;;;;;43.10;20.38;;;8.20;99.90;;;;;;5017675;28;20381;-73
2022/11/28 06:12:40;;;;;;;53.63;23.65;;;8.30;99.90;;;;;;5017476;28;20098;-75
2022/11/28 06:15:07;;;;;;;50.10;22.95;;;8.20;99.90;;;;;;5017685;28;20053;-70
2022/11/28 06:17:33;;;;;;;43.25;21.20;;;8.10;99.90;;;;;;5033576;28;20406;-75
2022/11/28 06:19:58;;;;;;;50.60;23.73;;;8.20;99.90;;;;;;5034013;28;20053;-79
2022/11/28 06:22:24;;;;;;;53.70;23.60;;;8.50;99.90;;;;;;5033929;28;20049;-72
2022/11/28 06:24:50;;;;;;;50.28;23.20;;;8.20;99.90;;;;;;5033662;28;20046;-70
2022/11/28 06:27:15;;;;;;;50.88;23.73;;;8.20;99.90;;;;;;5033951;28;20053;-73
2022/11/28 06:29:41;;;;;;;51.90;23.17;;;8.20;99.90;;;;;;5017173;28;20478;-78
2022/11/28 06:32:07;;;;;;;53.22;24.08;;;8.20;99.90;;;;;;5033062;28;20041;-74
2022/11/28 06:34:33;;;;;;;49.80;22.20;;;8.40;99.90;;;;;;5000269;28;20064;-73
2022/11/28 06:36:59;;;;;;;49.58;23.42;;;8.30;99.90;;;;;;5017313;28;20048;-76
2022/11/28 06:39:25;;;;;;;50.30;23.15;;;8.20;99.90;;;;;;5000982;28;20135;-78
2022/11/28 06:41:50;;;;;;;54.85;23.65;;;8.30;99.90;;;;;;5033348;28;20110;-72
2022/11/28 06:44:16;;;;;;;49.58;23.13;;;8.30;99.90;;;;;;5033503;28;20045;-75
2022/11/28 06:46:42;;;;;;;54.85;24.35;;;8.30;99.90;;;;;;5033226;28;20612;-73
2022/11/28 06:49:11;;;;;;;50.85;25.13;;;8.30;99.90;;;;;;5016916;28;20057;-75
2022/11/28 06:51:38;;;;;;;56.45;24.70;;;8.60;99.90;;;;;;5033325;28;20049;-74
2022/11/28 06:54:05;;;;;;;52.95;25.25;;;8.30;99.90;;;;;;5033003;28;20061;-75
2022/11/28 06:56:31;;;;;;;56.13;25.45;;;8.30;99.90;;;;;;5033293;28;20049;-70
2022/11/28 06:58:58;;;;;;;51.55;24.42;;;8.30;99.90;;;;;;5000214;28;20556;-73
2022/11/28 07:01:26;;;;;;;55.47;24.23;;;8.50;99.90;;;;;;5016824;28;20463;-77
2022/11/28 07:03:53;;;;;;;50.03;24.65;;;8.40;99.90;;;;;;5033010;28;20041;-72
2022/11/28 07:06:20;;;;;;;53.75;25.23;;;8.40;99.90;;;;;;5016774;28;20041;-76
2022/11/28 07:08:46;;;;;;;47.72;24.27;;;8.40;99.90;;;;;;5033068;28;20487;-74
2022/11/28 07:11:22;;;;;;;51.58;25.25;;;8.40;99.90;;;;;;5033142;28;20103;-71
2022/11/28 07:13:48;;;;;;;49.85;23.27;;;8.40;99.90;;;;;;5016339;28;20053;-74
2022/11/28 07:16:23;;;;;;;49.50;24.60;;;8.70;99.90;;;;;;5016561;28;20049;-71
2022/11/28 07:18:50;;;;;;;46.40;24.02;;;8.40;99.90;;;;;;5032682;28;20046;-78
2022/11/28 07:21:17;;;;;;;47.22;24.35;;;8.50;99.90;;;;;;5032896;28;20084;-74
2022/11/28 07:23:43;;;;;;;51.53;26.10;;;8.50;99.90;;;;;;5032681;28;20504;-75
2022/11/28 07:26:11;;;;;;;47.08;23.23;;;8.50;99.90;;;;;;5015939;28;20054;-79
2022/11/28 07:28:37;;;;;;;45.60;22.95;;;8.50;99.90;;;;;;5032453;28;20059;-79
2022/11/28 07:31:12;;;;;;;44.88;23.23;;;8.50;99.90;;;;;;5032755;28;20041;-75
2022/11/28 07:33:39;;;;;;;40.35;22.73;;;8.60;99.90;;;;;;5015890;28;20056;-78
2022/11/28 07:36:08;;;;;;;46.05;22.75;;;8.50;99.90;;;;;;5016418;28;20069;-76
2022/11/28 07:38:34;;;;;;;43.85;22.52;;;8.60;99.90;;;;;;5015992;28;20103;-73
2022/11/28 07:41:04;;;;;;;44.42;23.00;;;8.60;99.90;;;;;;5032286;28;20053;-75
2022/11/28 07:43:29;;;;;;;42.10;22.27;;;8.60;99.90;;;;;;5015649;28;20092;-76
2022/11/28 07:45:55;;;;;;;42.75;22.20;;;8.60;99.90;;;;;;5031775;28;20088;-74
2022/11/28 07:48:21;;;;;;;42.17;22.50;;;8.60;99.90;;;;;;5015847;28;20053;-70
2022/11/28 07:50:47;;;;;;;43.58;23.30;;;8.60;99.90;;;;;;4999163;28;20041;-74
2022/11/28 07:53:13;;;;;;;38.65;20.77;;;8.60;99.90;;;;;;5032135;28;20045;-72
2022/11/28 07:55:39;;;;;;;41.60;21.30;;;8.60;99.90;;;;;;5015588;28;20048;-77
2022/11/28 07:58:05;;;;;;;40.05;21.15;;;8.60;99.90;;;;;;5015088;28;20050;-73
2022/11/28 08:00:32;;;;;;;37.05;20.67;;;8.60;99.90;;;;;;5014846;28;20128;-72
2022/11/28 08:02:58;;;;;;;42.10;21.05;;;8.60;99.90;;;;;;5031473;28;20498;-74
2022/11/28 08:05:23;;;;;;;37.22;20.27;;;8.70;99.90;;;;;;5031843;28;20076;-72
2022/11/28 08:07:50;;;;;;;42.67;20.70;;;8.80;99.90;;;;;;5031844;28;20480;-77
2022/11/28 08:10:16;;;;;;;40.00;20.38;;;8.70;99.90;;;;;;5015283;28;20045;-75
2022/11/28 08:12:41;;;;;;;38.17;21.40;;;8.70;99.90;;;;;;5015209;28;20049;-73
2022/11/28 08:15:07;;;;;;;34.90;18.70;;;8.80;99.90;;;;;;4998760;28;20075;-74
2022/11/28 08:17:33;;;;;;;39.28;18.83;;;8.70;99.90;;;;;;5031860;28;20056;-75
2022/11/28 08:19:59;;;;;;;38.67;19.08;;;8.70;99.90;;;;;;5015346;28;20137;-76
2022/11/28 08:22:25;;;;;;;38.47;18.67;;;8.80;99.90;;;;;;5013366;28;20124;-76
2022/11/28 08:24:51;;;;;;;37.92;18.83;;;9.20;99.90;;;;;;4996406;28;20498;-78
2022/11/28 08:27:17;;;;;;;33.80;17.13;;;8.70;99.90;;;;;;5013180;28;20085;-76
2022/11/28 08:29:42;;;;;;;33.55;16.98;;;8.70;99.90;;;;;;4980428;28;20462;-79
2022/11/28 08:32:08;;;;;;;40.78;19.77;;;8.70;99.90;;;;;;5012904;28;20054;-75
2022/11/28 08:34:34;;;;;;;36.70;18.98;;;8.80;99.90;;;;;;5012060;28;20438;-77
2022/11/28 08:36:59;;;;;;;38.53;19.38;;;8.70;99.90;;;;;;4996530;28;20056;-79
2022/11/28 08:39:25;;;;;;;41.95;19.23;;;8.80;99.90;;;;;;5013036;28;20053;-76
2022/11/28 08:41:53;;;;;;;39.85;19.83;;;8.80;99.90;;;;;;4648212;28;10000591;-75
2022/11/28 08:44:18;;;;;;;40.63;20.23;;;8.80;99.90;;;;;;5009228;28;20081;-81
2022/11/28 08:46:44;;;;;;;39.65;20.30;;;8.80;99.90;;;;;;4992833;28;20093;-73
2022/11/28 08:49:10;;;;;;;38.15;20.10;;;8.70;99.90;;;;;;4992974;28;20140;-76
2022/11/28 08:51:35;;;;;;;39.38;18.70;;;8.70;99.90;;;;;;4993030;28;20046;-76
2022/11/28 08:54:01;;;;;;;37.60;19.50;;;9.10;99.90;;;;;;5009164;28;20447;-74
2022/11/28 08:56:27;;;;;;;39.28;20.08;;;8.80;99.90;;;;;;5012577;28;20103;-79
2022/11/28 08:58:54;;;;;;;39.00;18.85;;;8.80;99.90;;;;;;5012844;28;20045;-77
2022/11/28 09:01:21;;;;;;;37.97;19.10;;;9.20;99.90;;;;;;5013297;28;20054;-77
2022/11/28 09:03:47;;;;;;;40.42;19.42;;;8.80;99.90;;;;;;5013028;28;20050;-77
2022/11/28 09:06:14;;;;;;;44.38;20.45;;;9.00;99.90;;;;;;4996369;28;20080;-74
2022/11/28 09:08:40;;;;;;;40.38;19.65;;;8.80;99.90;;;;;;5013128;28;20049;-76
2022/11/28 09:11:08;;;;;;;38.20;19.38;;;8.90;99.90;;;;;;5012574;28;20545;-76
2022/11/28 09:13:35;;;;;;;41.17;21.00;;;8.80;99.90;;;;;;4996705;28;20053;-75
2022/11/28 09:16:01;;;;;;;44.03;21.15;;;8.80;99.90;;;;;;5012759;28;20054;-72
2022/11/28 09:18:27;;;;;;;41.35;20.38;;;8.90;99.90;;;;;;4996908;28;20045;-76
2022/11/28 09:21:00;;;;;;;42.58;19.77;;;8.80;99.90;;;;;;4980438;28;20517;-78
2022/11/28 09:23:26;;;;;;;40.83;20.50;;;8.90;99.90;;;;;;5012257;28;20053;-78
2022/11/28 09:25:52;;;;;;;41.95;19.88;;;8.90;99.90;;;;;;5012777;28;20136;-78
2022/11/28 09:28:18;;;;;;;38.10;19.83;;;8.90;99.90;;;;;;5012890;28;20105;-75
2022/11/28 09:30:44;;;;;;;42.55;20.17;;;8.90;99.90;;;;;;5012907;28;20042;-76
2022/11/28 09:33:11;;;;;;;41.45;19.95;;;8.90;99.90;;;;;;4996444;28;20061;-78
2022/11/28 09:35:41;;;;;;;42.60;20.73;;;9.00;99.90;;;;;;5007726;28;20070;-72
2022/11/28 09:38:07;;;;;;;42.92;20.45;;;9.00;99.90;;;;;;5012597;28;20069;-76
2022/11/28 09:40:39;;;;;;;42.78;20.88;;;8.90;99.90;;;;;;4996540;28;20058;-77
2022/11/28 09:43:29;;;;;;;41.92;20.77;;;9.00;99.90;;;;;;5048274;28;20485;-79
2022/11/28 09:45:59;;;;;;;38.05;19.00;;;9.00;99.90;;;;;;5051766;28;20048;-77
2022/11/28 09:48:37;;;;;;;41.67;19.75;;;9.00;99.90;;;;;;5035675;28;20067;-73
2022/11/28 09:51:26;;;;;;;41.80;20.25;;;9.00;99.90;;;;;;5035249;28;20471;-76
2022/11/28 09:54:29;;;;;;;41.75;20.65;;;9.00;99.90;;;;;;5052126;28;20055;-78
2022/11/28 09:56:56;;;;;;;39.42;20.30;;;9.10;99.90;;;;;;5035406;28;20509;-79
2022/11/28 09:59:29;;;;;;;42.47;20.25;;;9.00;99.90;;;;;;5018317;28;20056;-76
2022/11/28 10:02:21;;;;;;;46.25;22.13;;;9.10;99.90;;;;;;5051994;28;20436;-76
2022/11/28 10:04:58;;;;;;;46.90;22.17;;;9.10;99.90;;;;;;5051734;28;20045;-77
2022/11/28 10:07:23;;;;;;;45.65;21.25;;;9.10;99.90;;;;;;5012103;28;20552;-76
2022/11/28 10:09:59;;;;;;;43.80;20.02;;;9.10;99.90;;;;;;5014432;28;20053;-79
2022/11/28 10:12:48;;;;;;;46.17;22.38;;;9.10;99.90;;;;;;5031541;28;20059;-76
2022/11/28 10:15:40;;;;;;;46.85;21.38;;;9.20;99.90;;;;;;5022887;28;20089;-78
2022/11/28 10:18:18;;;;;;;38.45;17.15;;;9.20;99.90;;;;;;5031412;28;20049;-76
2022/11/28 10:20:47;;;;;;;41.13;20.42;;;9.10;99.90;;;;;;5031657;28;20042;-77
2022/11/28 10:23:16;;;;;;;39.30;19.98;;;9.10;99.90;;;;;;5014332;28;20041;-76
2022/11/28 10:25:58;;;;;;;42.03;19.95;;;9.10;99.90;;;;;;5014745;28;20104;-76
2022/11/28 10:28:42;;;;;;;35.75;18.75;;;9.10;99.90;;;;;;5031258;28;20045;-76
2022/11/28 10:31:42;;;;;;;37.13;19.23;;;9.20;99.90;;;;;;5014676;28;20060;-77
2022/11/28 10:34:28;;;;;;;40.70;19.50;;;9.10;99.90;;;;;;5030183;28;20107;-78
2022/11/28 10:36:57;;;;;;;34.70;17.60;;;9.10;99.90;;;;;;5030659;28;20139;-77
2022/11/28 10:39:24;;;;;;;30.23;15.85;;;9.20;99.90;;;;;;5014183;28;20441;-79
2022/11/28 10:42:12;;;;;;;33.85;16.42;;;9.10;99.90;;;;;;5022111;28;20056;-74
2022/11/28 11:03:39;;;;;;;28.17;16.20;;;9.20;99.90;;;;;;4774530;27;10001735;-82
2022/11/28 11:06:05;;;;;;;24.63;14.85;;;9.30;99.90;;;;;;5108362;28;20051;-78
2022/11/28 11:08:36;;;;;;;27.33;14.75;;;9.20;99.90;;;;;;5110631;28;20369;-79
2022/11/28 11:11:23;;;;;;;;;;;9.30;99.90;;;;;;5110297;28;20051;-78
2022/11/28 11:14:06;;;;;;;24.92;14.30;;;9.20;99.90;;;;;;5092552;28;19919;-79
2022/11/28 11:16:47;;;;;;;22.90;12.95;;;9.20;99.90;;;;;;5093600;28;20384;-79
2022/11/28 11:19:39;;;;;;;22.45;13.40;;;9.20;99.90;;;;;;5110161;28;20134;-80
2022/11/28 11:22:14;;;;;;;24.08;13.63;;;9.20;99.90;;;;;;5088815;28;20066;-78
2022/11/28 11:24:39;;;;;;;23.35;13.60;;;9.40;99.90;;;;;;5093088;28;20039;-79
2022/11/28 11:27:25;;;;;;;22.08;13.18;;;9.20;99.90;;;;;;5109840;28;20054;-79
2022/11/28 11:29:52;;;;;;;22.45;12.85;;;9.20;99.90;;;;;;5092669;28;20483;-79
2022/11/28 11:32:28;;;;;;;22.75;14.02;;;9.20;99.90;;;;;;5092955;28;20100;-80
2022/11/28 11:34:56;;;;;;;24.13;14.25;;;9.20;99.90;;;;;;5093411;28;20043;-78
2022/11/28 11:37:32;;;;;;;23.30;13.88;;;9.20;99.90;;;;;;5092609;28;20051;-79
2022/11/28 11:39:59;;;;;;;23.48;13.30;;;9.20;99.90;;;;;;5092677;28;20043;-79
2022/11/28 11:42:28;;;;;;;26.17;14.93;;;9.20;99.90;;;;;;5093161;28;20093;-81
2022/11/28 11:44:54;;;;;;;23.35;13.88;;;9.20;99.90;;;;;;5110187;28;20035;-79
2022/11/28 11:47:40;;;;;;;24.55;13.68;;;9.20;99.90;;;;;;5092696;28;20476;-79
2022/11/28 11:50:06;;;;;;;22.95;13.75;;;9.20;99.90;;;;;;5092909;28;20380;-79
2022/11/28 11:52:32;;;;;;;20.38;12.50;;;9.20;99.90;;;;;;5092108;28;20074;-78
2022/11/28 11:55:17;;;;;;;22.05;13.93;;;9.20;99.90;;;;;;5059251;28;20560;-77
2022/11/28 11:57:46;;;;;;;23.63;14.07;;;9.30;99.90;;;;;;5092720;28;20484;-78
2022/11/28 12:00:12;;;;;;;22.67;13.82;;;9.20;99.90;;;;;;5090532;28;20039;-78
2022/11/28 12:03:06;;;;;;;22.13;13.95;;;9.30;99.90;;;;;;5095224;28;20473;-78
2022/11/28 12:05:59;;;;;;;22.90;14.18;;;9.20;99.90;;;;;;5041571;28;20051;-79
2022/11/28 12:09:02;;;;;;;22.40;12.93;;;10.60;99.90;;;;;;5092662;28;20040;-79
2022/11/28 12:11:34;;;;;;;23.10;13.23;;;9.20;99.90;;;;;;5053428;28;20570;-79
2022/11/28 12:14:27;;;;;;;21.70;13.50;;;9.30;99.90;;;;;;5075173;28;20048;-79
2022/11/28 12:17:10;;;;;;;24.35;14.40;;;9.30;99.90;;;;;;5081374;28;20052;-79
2022/11/28 12:20:08;;;;;;;21.98;13.75;;;9.20;99.90;;;;;;5092134;28;20045;-81
2022/11/28 12:22:49;;;;;;;23.67;14.23;;;9.20;99.90;;;;;;5050541;28;20510;-80
2022/11/28 12:25:18;;;;;;;22.90;13.85;;;9.20;99.90;;;;;;5091873;28;20580;-81
2022/11/28 12:28:09;;;;;;;21.20;12.95;;;9.20;99.90;;;;;;5075193;28;20178;-80
2022/11/28 12:30:40;;;;;;;22.70;12.65;;;9.20;99.90;;;;;;5092494;28;20065;-79
2022/11/28 12:33:20;;;;;;;25.15;14.45;;;9.20;99.90;;;;;;5091842;28;20484;-82
2022/11/28 12:36:18;;;;;;;25.75;14.68;;;9.20;99.90;;;;;;5092083;28;20466;-79
2022/11/28 12:39:07;;;;;;;25.45;14.43;;;9.30;99.90;;;;;;5092150;28;20051;-79
2022/11/28 12:41:43;;;;;;;23.60;14.23;;;9.20;99.90;;;;;;5044835;28;20048;-80
2022/11/28 12:44:25;;;;;;;25.45;14.20;;;9.20;99.90;;;;;;5092027;28;20040;-78
2022/11/28 12:47:16;;;;;;;24.25;13.93;;;9.20;99.90;;;;;;5077211;28;20060;-78
2022/11/28 12:50:22;;;;;;;26.15;14.70;;;9.20;99.90;;;;;;5112050;28;20054;-79
2022/11/28 12:52:50;;;;;;;24.45;14.32;;;9.30;99.90;;;;;;5111774;28;20476;-79
2022/11/28 12:55:22;;;;;;;24.77;15.32;;;9.30;99.90;;;;;;5111907;28;20046;-79
2022/11/28 12:58:00;;;;;;;23.40;14.85;;;9.30;99.90;;;;;;5095364;28;20078;-81
2022/11/28 13:00:27;;;;;;;26.25;15.32;;;9.30;99.90;;;;;;5108321;28;20082;-78
2022/11/28 13:03:33;;;;;;;29.02;15.82;;;9.30;99.90;;;;;;5074292;28;20056;-79
2022/11/28 13:06:07;;;;;;;24.17;14.52;;;9.30;99.90;;;;;;5074903;28;20046;-78
2022/11/28 13:08:38;;;;;;;26.13;15.73;;;9.30;99.90;;;;;;5074626;28;20043;-80
2022/11/28 13:11:10;;;;;;;;;;;9.30;99.90;;;;;;5091922;28;20040;-79
2022/11/28 13:13:53;;;;;;;26.45;15.75;;;9.30;99.90;;;;;;5090297;28;19927;-81
2022/11/28 13:16:43;;;;;;;31.00;16.25;;;9.30;99.90;;;;;;5075394;28;20052;-78
2022/11/28 13:20:06;;;;;;;27.70;15.80;;;9.30;99.90;;;;;;5076622;28;20047;-78
2022/11/28 13:23:04;;;;;;;27.40;14.95;;;9.30;99.90;;;;;;4999288;28;20140;-78
2022/11/28 13:25:37;;;;;;;31.92;17.02;;;9.40;99.90;;;;;;4998916;28;20045;-81